sensor_id;sensor_type;location;lat;lon;timestamp;P1;durP1;ratioP1;P2;durP2;ratioP2
44248;SDS011;29923;48.718;9.272;2023-03-26T00:01:13;6.60;;;1.48;;
44248;SDS011;29923;48.718;9.272;2023-03-26T00:03:40;5.20;;;1.55;;
44248;SDS011;29923;48.718;9.272;2023-03-26T00:06:15;3.65;;;1.17;;
44248;SDS011;29923;48.718;9.272;2023-03-26T00:08:41;3.65;;;1.42;;
44248;SDS011;29923;48.718;9.272;2023-03-26T00:11:09;8.77;;;1.50;;
44248;SDS011;29923;48.718;9.272;2023-03-26T00:13:35;5.10;;;1.27;;
44248;SDS011;29923;48.718;9.272;2023-03-26T00:16:01;2.65;;;1.10;;
44248;SDS011;29923;48.718;9.272;2023-03-26T00:18:27;4.40;;;1.15;;
44248;SDS011;29923;48.718;9.272;2023-03-26T00:20:58;3.63;;;1.20;;
44248;SDS011;29923;48.718;9.272;2023-03-26T00:23:28;4.03;;;1.15;;
44248;SDS011;29923;48.718;9.272;2023-03-26T00:25:54;2.92;;;1.10;;
44248;SDS011;29923;48.718;9.272;2023-03-26T00:28:20;3.53;;;1.05;;
44248;SDS011;29923;48.718;9.272;2023-03-26T00:30:47;9.02;;;1.63;;
44248;SDS011;29923;48.718;9.272;2023-03-26T00:33:13;4.18;;;1.27;;
44248;SDS011;29923;48.718;9.272;2023-03-26T00:35:45;4.57;;;1.17;;
44248;SDS011;29923;48.718;9.272;2023-03-26T00:38:16;6.45;;;1.20;;
44248;SDS011;29923;48.718;9.272;2023-03-26T00:40:41;2.95;;;1.33;;
44248;SDS011;29923;48.718;9.272;2023-03-26T00:43:08;5.35;;;1.33;;
44248;SDS011;29923;48.718;9.272;2023-03-26T00:45:42;3.63;;;1.50;;
44248;SDS011;29923;48.718;9.272;2023-03-26T00:48:08;5.45;;;1.00;;
44248;SDS011;29923;48.718;9.272;2023-03-26T00:50:34;6.57;;;1.20;;
44248;SDS011;29923;48.718;9.272;2023-03-26T00:52:59;5.70;;;1.80;;
44248;SDS011;29923;48.718;9.272;2023-03-26T00:55:24;4.97;;;1.42;;
44248;SDS011;29923;48.718;9.272;2023-03-26T00:57:50;4.68;;;1.65;;
44248;SDS011;29923;48.718;9.272;2023-03-26T01:00:15;6.22;;;1.30;;
44248;SDS011;29923;48.718;9.272;2023-03-26T01:02:42;5.45;;;1.20;;
44248;SDS011;29923;48.718;9.272;2023-03-26T01:08:02;6.80;;;2.10;;
44248;SDS011;29923;48.718;9.272;2023-03-26T01:10:42;8.00;;;1.10;;
44248;SDS011;29923;48.718;9.272;2023-03-26T01:13:14;2.47;;;1.20;;
44248;SDS011;29923;48.718;9.272;2023-03-26T01:15:41;6.55;;;1.25;;
44248;SDS011;29923;48.718;9.272;2023-03-26T01:18:07;2.92;;;1.27;;
44248;SDS011;29923;48.718;9.272;2023-03-26T01:20:33;7.57;;;1.35;;
44248;SDS011;29923;48.718;9.272;2023-03-26T01:23:03;5.50;;;1.38;;
44248;SDS011;29923;48.718;9.272;2023-03-26T01:25:31;6.10;;;1.30;;
44248;SDS011;29923;48.718;9.272;2023-03-26T01:28:01;8.95;;;1.90;;
44248;SDS011;29923;48.718;9.272;2023-03-26T01:35:51;5.88;;;1.40;;
44248;SDS011;29923;48.718;9.272;2023-03-26T01:38:23;7.28;;;1.48;;
44248;SDS011;29923;48.718;9.272;2023-03-26T01:41:09;5.25;;;1.20;;
44248;SDS011;29923;48.718;9.272;2023-03-26T01:46:08;5.10;;;1.38;;
44248;SDS011;29923;48.718;9.272;2023-03-26T01:48:36;10.55;;;1.50;;
44248;SDS011;29923;48.718;9.272;2023-03-26T01:51:04;7.63;;;1.40;;
44248;SDS011;29923;48.718;9.272;2023-03-26T01:53:29;6.57;;;1.95;;
44248;SDS011;29923;48.718;9.272;2023-03-26T01:56:33;7.47;;;1.30;;
44248;SDS011;29923;48.718;9.272;2023-03-26T01:59:11;9.60;;;1.45;;
44248;SDS011;29923;48.718;9.272;2023-03-26T02:07:24;8.45;;;1.60;;
44248;SDS011;29923;48.718;9.272;2023-03-26T02:09:56;7.03;;;1.45;;
44248;SDS011;29923;48.718;9.272;2023-03-26T02:12:24;4.65;;;1.48;;
44248;SDS011;29923;48.718;9.272;2023-03-26T02:14:50;6.43;;;1.67;;
44248;SDS011;29923;48.718;9.272;2023-03-26T02:17:15;11.02;;;1.77;;
44248;SDS011;29923;48.718;9.272;2023-03-26T02:19:40;5.45;;;1.30;;
44248;SDS011;29923;48.718;9.272;2023-03-26T02:22:07;8.00;;;1.58;;
44248;SDS011;29923;48.718;9.272;2023-03-26T02:24:35;8.55;;;1.67;;
44248;SDS011;29923;48.718;9.272;2023-03-26T02:27:03;5.72;;;1.80;;
44248;SDS011;29923;48.718;9.272;2023-03-26T02:29:31;6.40;;;1.60;;
44248;SDS011;29923;48.718;9.272;2023-03-26T02:32:02;6.93;;;1.27;;
44248;SDS011;29923;48.718;9.272;2023-03-26T02:34:31;14.05;;;2.28;;
44248;SDS011;29923;48.718;9.272;2023-03-26T02:36:57;7.43;;;1.60;;
44248;SDS011;29923;48.718;9.272;2023-03-26T02:39:23;5.13;;;1.25;;
44248;SDS011;29923;48.718;9.272;2023-03-26T02:41:48;7.63;;;1.15;;
44248;SDS011;29923;48.718;9.272;2023-03-26T02:44:14;8.85;;;1.55;;
44248;SDS011;29923;48.718;9.272;2023-03-26T02:46:39;6.35;;;1.65;;
44248;SDS011;29923;48.718;9.272;2023-03-26T02:49:04;6.78;;;1.27;;
44248;SDS011;29923;48.718;9.272;2023-03-26T02:51:30;7.53;;;1.67;;
44248;SDS011;29923;48.718;9.272;2023-03-26T02:53:59;11.23;;;1.98;;
44248;SDS011;29923;48.718;9.272;2023-03-26T02:56:25;4.93;;;1.20;;
44248;SDS011;29923;48.718;9.272;2023-03-26T02:58:51;7.93;;;1.67;;
44248;SDS011;29923;48.718;9.272;2023-03-26T03:01:16;6.72;;;1.55;;
44248;SDS011;29923;48.718;9.272;2023-03-26T03:03:42;7.03;;;1.95;;
44248;SDS011;29923;48.718;9.272;2023-03-26T03:06:07;11.77;;;1.60;;
44248;SDS011;29923;48.718;9.272;2023-03-26T03:08:33;6.68;;;1.42;;
44248;SDS011;29923;48.718;9.272;2023-03-26T03:10:59;10.48;;;1.55;;
44248;SDS011;29923;48.718;9.272;2023-03-26T03:13:26;8.20;;;1.52;;
44248;SDS011;29923;48.718;9.272;2023-03-26T03:15:52;7.78;;;1.77;;
44248;SDS011;29923;48.718;9.272;2023-03-26T03:18:18;9.65;;;1.67;;
44248;SDS011;29923;48.718;9.272;2023-03-26T03:20:43;7.00;;;1.70;;
44248;SDS011;29923;48.718;9.272;2023-03-26T03:23:09;7.20;;;1.60;;
44248;SDS011;29923;48.718;9.272;2023-03-26T03:25:35;8.68;;;1.58;;
44248;SDS011;29923;48.718;9.272;2023-03-26T03:28:02;10.80;;;1.67;;
44248;SDS011;29923;48.718;9.272;2023-03-26T03:30:28;8.60;;;1.65;;
44248;SDS011;29923;48.718;9.272;2023-03-26T03:32:53;6.60;;;1.52;;
44248;SDS011;29923;48.718;9.272;2023-03-26T03:35:18;8.40;;;1.83;;
44248;SDS011;29923;48.718;9.272;2023-03-26T03:37:44;8.48;;;1.77;;
44248;SDS011;29923;48.718;9.272;2023-03-26T03:40:09;6.10;;;1.50;;
44248;SDS011;29923;48.718;9.272;2023-03-26T03:42:35;11.98;;;2.20;;
44248;SDS011;29923;48.718;9.272;2023-03-26T03:45:01;5.43;;;1.77;;
44248;SDS011;29923;48.718;9.272;2023-03-26T03:47:27;7.05;;;1.55;;
44248;SDS011;29923;48.718;9.272;2023-03-26T03:49:52;6.53;;;1.63;;
44248;SDS011;29923;48.718;9.272;2023-03-26T03:52:18;7.55;;;2.00;;
44248;SDS011;29923;48.718;9.272;2023-03-26T03:54:43;9.27;;;1.75;;
44248;SDS011;29923;48.718;9.272;2023-03-26T03:57:08;5.07;;;1.65;;
44248;SDS011;29923;48.718;9.272;2023-03-26T03:59:34;11.30;;;1.52;;
44248;SDS011;29923;48.718;9.272;2023-03-26T04:01:59;5.68;;;1.58;;
44248;SDS011;29923;48.718;9.272;2023-03-26T04:04:24;12.23;;;1.77;;
44248;SDS011;29923;48.718;9.272;2023-03-26T04:06:50;14.60;;;1.63;;
44248;SDS011;29923;48.718;9.272;2023-03-26T04:09:16;9.70;;;1.40;;
44248;SDS011;29923;48.718;9.272;2023-03-26T04:11:41;7.65;;;1.73;;
44248;SDS011;29923;48.718;9.272;2023-03-26T04:14:06;10.65;;;1.60;;
44248;SDS011;29923;48.718;9.272;2023-03-26T04:16:32;8.18;;;2.00;;
44248;SDS011;29923;48.718;9.272;2023-03-26T04:18:57;6.22;;;1.80;;
44248;SDS011;29923;48.718;9.272;2023-03-26T04:21:26;8.20;;;2.45;;
44248;SDS011;29923;48.718;9.272;2023-03-26T04:23:54;10.88;;;1.88;;
44248;SDS011;29923;48.718;9.272;2023-03-26T04:26:19;9.27;;;1.85;;
44248;SDS011;29923;48.718;9.272;2023-03-26T04:28:47;8.30;;;1.67;;
44248;SDS011;29923;48.718;9.272;2023-03-26T04:31:17;7.13;;;1.50;;
44248;SDS011;29923;48.718;9.272;2023-03-26T04:33:47;11.48;;;2.05;;
44248;SDS011;29923;48.718;9.272;2023-03-26T04:36:13;6.28;;;1.70;;
44248;SDS011;29923;48.718;9.272;2023-03-26T04:38:40;12.15;;;1.95;;
44248;SDS011;29923;48.718;9.272;2023-03-26T04:41:10;10.02;;;1.90;;
44248;SDS011;29923;48.718;9.272;2023-03-26T04:43:36;11.85;;;2.25;;
44248;SDS011;29923;48.718;9.272;2023-03-26T04:46:06;9.82;;;2.58;;
44248;SDS011;29923;48.718;9.272;2023-03-26T04:48:32;7.32;;;1.92;;
44248;SDS011;29923;48.718;9.272;2023-03-26T04:50:57;16.10;;;2.20;;
44248;SDS011;29923;48.718;9.272;2023-03-26T04:53:22;8.55;;;1.75;;
44248;SDS011;29923;48.718;9.272;2023-03-26T04:55:56;8.77;;;1.88;;
44248;SDS011;29923;48.718;9.272;2023-03-26T04:58:25;11.82;;;2.33;;
44248;SDS011;29923;48.718;9.272;2023-03-26T05:00:56;9.70;;;1.95;;
44248;SDS011;29923;48.718;9.272;2023-03-26T05:03:25;8.55;;;1.75;;
44248;SDS011;29923;48.718;9.272;2023-03-26T05:05:57;10.07;;;1.77;;
44248;SDS011;29923;48.718;9.272;2023-03-26T05:08:22;9.63;;;1.70;;
44248;SDS011;29923;48.718;9.272;2023-03-26T05:10:48;11.93;;;1.95;;
44248;SDS011;29923;48.718;9.272;2023-03-26T05:13:13;9.82;;;2.47;;
44248;SDS011;29923;48.718;9.272;2023-03-26T05:15:38;5.45;;;1.63;;
44248;SDS011;29923;48.718;9.272;2023-03-26T05:18:04;4.55;;;1.55;;
44248;SDS011;29923;48.718;9.272;2023-03-26T05:20:29;10.55;;;1.90;;
44248;SDS011;29923;48.718;9.272;2023-03-26T05:22:55;9.75;;;2.50;;
44248;SDS011;29923;48.718;9.272;2023-03-26T05:25:21;8.82;;;2.22;;
44248;SDS011;29923;48.718;9.272;2023-03-26T05:27:46;6.20;;;2.25;;
44248;SDS011;29923;48.718;9.272;2023-03-26T05:30:13;8.38;;;2.08;;
44248;SDS011;29923;48.718;9.272;2023-03-26T05:32:40;6.57;;;1.42;;
44248;SDS011;29923;48.718;9.272;2023-03-26T05:35:06;10.38;;;1.83;;
44248;SDS011;29923;48.718;9.272;2023-03-26T05:37:31;6.20;;;1.73;;
44248;SDS011;29923;48.718;9.272;2023-03-26T05:39:57;9.23;;;1.95;;
44248;SDS011;29923;48.718;9.272;2023-03-26T05:42:23;7.90;;;2.40;;
44248;SDS011;29923;48.718;9.272;2023-03-26T05:44:49;10.60;;;2.58;;
44248;SDS011;29923;48.718;9.272;2023-03-26T05:47:14;15.57;;;2.75;;
44248;SDS011;29923;48.718;9.272;2023-03-26T05:49:40;11.77;;;2.17;;
44248;SDS011;29923;48.718;9.272;2023-03-26T05:52:05;8.82;;;1.92;;
44248;SDS011;29923;48.718;9.272;2023-03-26T05:54:30;9.80;;;2.75;;
44248;SDS011;29923;48.718;9.272;2023-03-26T05:56:56;7.28;;;2.30;;
44248;SDS011;29923;48.718;9.272;2023-03-26T05:59:21;7.97;;;1.98;;
44248;SDS011;29923;48.718;9.272;2023-03-26T06:01:47;5.60;;;1.75;;
44248;SDS011;29923;48.718;9.272;2023-03-26T06:04:15;14.75;;;2.25;;
44248;SDS011;29923;48.718;9.272;2023-03-26T06:06:41;14.95;;;3.25;;
44248;SDS011;29923;48.718;9.272;2023-03-26T06:09:06;9.52;;;2.08;;
44248;SDS011;29923;48.718;9.272;2023-03-26T06:11:32;13.07;;;2.45;;
44248;SDS011;29923;48.718;9.272;2023-03-26T06:13:57;9.52;;;2.55;;
44248;SDS011;29923;48.718;9.272;2023-03-26T06:16:23;12.43;;;2.28;;
44248;SDS011;29923;48.718;9.272;2023-03-26T06:18:48;4.43;;;2.15;;
44248;SDS011;29923;48.718;9.272;2023-03-26T06:21:15;8.93;;;1.67;;
44248;SDS011;29923;48.718;9.272;2023-03-26T06:23:41;10.68;;;5.88;;
44248;SDS011;29923;48.718;9.272;2023-03-26T06:26:07;11.88;;;2.55;;
44248;SDS011;29923;48.718;9.272;2023-03-26T06:28:32;8.70;;;1.98;;
44248;SDS011;29923;48.718;9.272;2023-03-26T06:30:58;10.65;;;2.42;;
44248;SDS011;29923;48.718;9.272;2023-03-26T06:33:24;9.18;;;2.70;;
44248;SDS011;29923;48.718;9.272;2023-03-26T06:35:49;8.35;;;2.30;;
44248;SDS011;29923;48.718;9.272;2023-03-26T06:38:15;8.80;;;2.30;;
44248;SDS011;29923;48.718;9.272;2023-03-26T06:40:40;8.93;;;2.10;;
44248;SDS011;29923;48.718;9.272;2023-03-26T06:43:05;13.10;;;2.60;;
44248;SDS011;29923;48.718;9.272;2023-03-26T06:45:31;7.47;;;1.83;;
44248;SDS011;29923;48.718;9.272;2023-03-26T06:47:57;11.50;;;1.80;;
44248;SDS011;29923;48.718;9.272;2023-03-26T06:50:22;8.88;;;2.35;;
44248;SDS011;29923;48.718;9.272;2023-03-26T06:52:47;9.75;;;1.83;;
44248;SDS011;29923;48.718;9.272;2023-03-26T06:55:14;11.38;;;2.60;;
44248;SDS011;29923;48.718;9.272;2023-03-26T06:57:40;7.13;;;1.88;;
44248;SDS011;29923;48.718;9.272;2023-03-26T07:00:06;12.05;;;2.45;;
44248;SDS011;29923;48.718;9.272;2023-03-26T07:02:32;10.18;;;1.92;;
44248;SDS011;29923;48.718;9.272;2023-03-26T07:04:58;5.63;;;1.90;;
44248;SDS011;29923;48.718;9.272;2023-03-26T07:07:23;7.00;;;2.17;;
44248;SDS011;29923;48.718;9.272;2023-03-26T07:09:48;8.25;;;1.95;;
44248;SDS011;29923;48.718;9.272;2023-03-26T07:12:14;20.35;;;3.33;;
44248;SDS011;29923;48.718;9.272;2023-03-26T07:14:40;8.30;;;2.40;;
44248;SDS011;29923;48.718;9.272;2023-03-26T07:17:05;8.30;;;2.10;;
44248;SDS011;29923;48.718;9.272;2023-03-26T07:19:30;6.65;;;1.85;;
44248;SDS011;29923;48.718;9.272;2023-03-26T07:21:56;9.00;;;2.38;;
44248;SDS011;29923;48.718;9.272;2023-03-26T07:24:22;13.95;;;3.20;;
44248;SDS011;29923;48.718;9.272;2023-03-26T07:29:53;10.02;;;2.45;;
44248;SDS011;29923;48.718;9.272;2023-03-26T07:40:33;7.75;;;2.05;;
44248;SDS011;29923;48.718;9.272;2023-03-26T07:43:08;6.95;;;2.08;;
44248;SDS011;29923;48.718;9.272;2023-03-26T07:45:40;9.95;;;1.92;;
44248;SDS011;29923;48.718;9.272;2023-03-26T07:50:50;10.35;;;2.00;;
44248;SDS011;29923;48.718;9.272;2023-03-26T07:53:16;9.63;;;1.85;;
44248;SDS011;29923;48.718;9.272;2023-03-26T08:01:55;7.72;;;1.92;;
44248;SDS011;29923;48.718;9.272;2023-03-26T08:06:57;10.27;;;2.38;;
44248;SDS011;29923;48.718;9.272;2023-03-26T08:09:33;6.43;;;2.05;;
44248;SDS011;29923;48.718;9.272;2023-03-26T08:12:05;8.98;;;1.92;;
44248;SDS011;29923;48.718;9.272;2023-03-26T08:19:59;14.80;;;2.05;;
44248;SDS011;29923;48.718;9.272;2023-03-26T08:22:33;14.20;;;2.55;;
44248;SDS011;29923;48.718;9.272;2023-03-26T08:25:15;8.60;;;1.98;;
44248;SDS011;29923;48.718;9.272;2023-03-26T08:27:46;13.65;;;2.10;;
44248;SDS011;29923;48.718;9.272;2023-03-26T08:30:41;15.02;;;2.60;;
44248;SDS011;29923;48.718;9.272;2023-03-26T08:33:17;17.77;;;3.40;;
44248;SDS011;29923;48.718;9.272;2023-03-26T08:35:44;12.23;;;3.30;;
44248;SDS011;29923;48.718;9.272;2023-03-26T08:38:10;11.05;;;2.65;;
44248;SDS011;29923;48.718;9.272;2023-03-26T08:57:51;13.05;;;2.85;;
44248;SDS011;29923;48.718;9.272;2023-03-26T09:09:38;15.55;;;3.03;;
44248;SDS011;29923;48.718;9.272;2023-03-26T09:20:47;7.97;;;1.88;;
44248;SDS011;29923;48.718;9.272;2023-03-26T09:26:20;7.30;;;1.80;;
44248;SDS011;29923;48.718;9.272;2023-03-26T09:40:02;7.38;;;2.63;;
44248;SDS011;29923;48.718;9.272;2023-03-26T09:53:52;4.60;;;1.42;;
44248;SDS011;29923;48.718;9.272;2023-03-26T10:03:57;2.08;;;1.10;;
44248;SDS011;29923;48.718;9.272;2023-03-26T10:06:35;1.48;;;0.82;;
44248;SDS011;29923;48.718;9.272;2023-03-26T10:11:47;3.75;;;1.10;;
44248;SDS011;29923;48.718;9.272;2023-03-26T10:17:35;2.92;;;0.90;;
44248;SDS011;29923;48.718;9.272;2023-03-26T10:25:27;2.70;;;0.80;;
44248;SDS011;29923;48.718;9.272;2023-03-26T10:31:02;6.78;;;1.23;;
44248;SDS011;29923;48.718;9.272;2023-03-26T10:41:20;8.77;;;1.58;;
44248;SDS011;29923;48.718;9.272;2023-03-26T10:44:08;3.75;;;1.02;;
44248;SDS011;29923;48.718;9.272;2023-03-26T10:47:10;4.95;;;1.33;;
44248;SDS011;29923;48.718;9.272;2023-03-26T10:52:56;1.85;;;0.70;;
44248;SDS011;29923;48.718;9.272;2023-03-26T10:58:16;4.88;;;0.80;;
44248;SDS011;29923;48.718;9.272;2023-03-26T11:03:33;3.42;;;0.60;;
44248;SDS011;29923;48.718;9.272;2023-03-26T11:08:56;1.58;;;0.80;;
44248;SDS011;29923;48.718;9.272;2023-03-26T11:11:33;3.72;;;0.45;;
44248;SDS011;29923;48.718;9.272;2023-03-26T11:19:40;1.17;;;0.60;;
44248;SDS011;29923;48.718;9.272;2023-03-26T11:28:16;1.90;;;0.60;;
44248;SDS011;29923;48.718;9.272;2023-03-26T11:33:16;2.55;;;1.08;;
44248;SDS011;29923;48.718;9.272;2023-03-26T11:35:44;1.55;;;0.60;;
44248;SDS011;29923;48.718;9.272;2023-03-26T11:40:48;0.47;;;0.45;;
44248;SDS011;29923;48.718;9.272;2023-03-26T11:43:15;1.05;;;0.60;;
44248;SDS011;29923;48.718;9.272;2023-03-26T11:45:45;2.13;;;0.70;;
44248;SDS011;29923;48.718;9.272;2023-03-26T11:51:04;1.10;;;0.70;;
44248;SDS011;29923;48.718;9.272;2023-03-26T11:53:32;2.58;;;0.70;;
44248;SDS011;29923;48.718;9.272;2023-03-26T11:56:03;1.60;;;0.60;;
44248;SDS011;29923;48.718;9.272;2023-03-26T11:59:21;2.28;;;0.50;;
44248;SDS011;29923;48.718;9.272;2023-03-26T12:01:43;2.67;;;0.70;;
44248;SDS011;29923;48.718;9.272;2023-03-26T12:04:15;3.65;;;0.80;;
44248;SDS011;29923;48.718;9.272;2023-03-26T12:06:53;1.92;;;0.40;;
44248;SDS011;29923;48.718;9.272;2023-03-26T12:09:20;3.20;;;0.95;;
44248;SDS011;29923;48.718;9.272;2023-03-26T12:11:46;0.73;;;0.40;;
44248;SDS011;29923;48.718;9.272;2023-03-26T12:14:17;9.63;;;1.10;;
44248;SDS011;29923;48.718;9.272;2023-03-26T12:19:37;0.95;;;0.80;;
44248;SDS011;29923;48.718;9.272;2023-03-26T12:22:49;2.10;;;0.80;;
44248;SDS011;29923;48.718;9.272;2023-03-26T12:25:22;1.45;;;0.70;;
44248;SDS011;29923;48.718;9.272;2023-03-26T12:30:41;3.38;;;0.95;;
44248;SDS011;29923;48.718;9.272;2023-03-26T12:33:25;1.27;;;0.50;;
44248;SDS011;29923;48.718;9.272;2023-03-26T12:35:53;2.72;;;0.60;;
44248;SDS011;29923;48.718;9.272;2023-03-26T12:40:47;2.50;;;0.77;;
44248;SDS011;29923;48.718;9.272;2023-03-26T12:46:18;1.52;;;0.70;;
44248;SDS011;29923;48.718;9.272;2023-03-26T12:48:56;1.67;;;0.57;;
44248;SDS011;29923;48.718;9.272;2023-03-26T13:05:07;4.53;;;0.90;;
44248;SDS011;29923;48.718;9.272;2023-03-26T13:13:10;2.67;;;0.73;;
44248;SDS011;29923;48.718;9.272;2023-03-26T13:15:48;3.50;;;0.90;;
44248;SDS011;29923;48.718;9.272;2023-03-26T13:21:15;1.85;;;0.82;;
44248;SDS011;29923;48.718;9.272;2023-03-26T13:24:17;2.22;;;0.90;;
44248;SDS011;29923;48.718;9.272;2023-03-26T13:27:11;2.63;;;0.80;;
44248;SDS011;29923;48.718;9.272;2023-03-26T13:38:00;1.27;;;0.70;;
44248;SDS011;29923;48.718;9.272;2023-03-26T13:40:40;0.70;;;0.50;;
44248;SDS011;29923;48.718;9.272;2023-03-26T13:46:09;1.02;;;0.50;;
44248;SDS011;29923;48.718;9.272;2023-03-26T13:48:41;0.90;;;0.40;;
44248;SDS011;29923;48.718;9.272;2023-03-26T13:51:15;4.35;;;0.65;;
44248;SDS011;29923;48.718;9.272;2023-03-26T13:53:46;2.47;;;0.95;;
44248;SDS011;29923;48.718;9.272;2023-03-26T13:56:18;2.17;;;0.60;;
44248;SDS011;29923;48.718;9.272;2023-03-26T13:58:46;4.10;;;0.70;;
44248;SDS011;29923;48.718;9.272;2023-03-26T14:01:18;2.03;;;0.65;;
44248;SDS011;29923;48.718;9.272;2023-03-26T14:09:26;5.68;;;0.73;;
44248;SDS011;29923;48.718;9.272;2023-03-26T14:22:54;9.32;;;0.57;;
44248;SDS011;29923;48.718;9.272;2023-03-26T14:25:29;2.17;;;0.77;;
44248;SDS011;29923;48.718;9.272;2023-03-26T14:28:20;2.53;;;0.60;;
44248;SDS011;29923;48.718;9.272;2023-03-26T14:39:21;6.80;;;1.23;;
44248;SDS011;29923;48.718;9.272;2023-03-26T14:42:17;3.13;;;0.60;;
44248;SDS011;29923;48.718;9.272;2023-03-26T14:44:55;0.93;;;0.35;;
44248;SDS011;29923;48.718;9.272;2023-03-26T14:47:35;9.05;;;1.70;;
44248;SDS011;29923;48.718;9.272;2023-03-26T14:52:55;1.77;;;0.60;;
44248;SDS011;29923;48.718;9.272;2023-03-26T15:09:30;2.65;;;0.73;;
44248;SDS011;29923;48.718;9.272;2023-03-26T15:23:45;2.65;;;0.60;;
44248;SDS011;29923;48.718;9.272;2023-03-26T15:37:31;7.30;;;3.63;;
44248;SDS011;29923;48.718;9.272;2023-03-26T15:42:52;2.30;;;0.30;;
44248;SDS011;29923;48.718;9.272;2023-03-26T15:50:38;0.50;;;0.30;;
44248;SDS011;29923;48.718;9.272;2023-03-26T16:10:22;0.20;;;0.20;;
44248;SDS011;29923;48.718;9.272;2023-03-26T16:15:53;8.52;;;4.38;;
44248;SDS011;29923;48.718;9.272;2023-03-26T16:18:41;0.30;;;0.30;;
44248;SDS011;29923;48.718;9.272;2023-03-26T16:26:15;0.50;;;0.50;;
44248;SDS011;29923;48.718;9.272;2023-03-26T16:33:38;0.55;;;0.30;;
44248;SDS011;29923;48.718;9.272;2023-03-26T16:36:31;0.45;;;0.30;;
44248;SDS011;29923;48.718;9.272;2023-03-26T16:41:54;0.63;;;0.30;;
44248;SDS011;29923;48.718;9.272;2023-03-26T16:45:01;3.60;;;0.40;;
44248;SDS011;29923;48.718;9.272;2023-03-26T16:47:35;0.30;;;0.30;;
44248;SDS011;29923;48.718;9.272;2023-03-26T16:53:07;1.20;;;0.70;;
44248;SDS011;29923;48.718;9.272;2023-03-26T16:55:45;1.30;;;0.95;;
44248;SDS011;29923;48.718;9.272;2023-03-26T16:58:37;0.30;;;0.30;;
44248;SDS011;29923;48.718;9.272;2023-03-26T17:01:31;0.60;;;0.40;;
44248;SDS011;29923;48.718;9.272;2023-03-26T17:04:19;1.20;;;0.30;;
44248;SDS011;29923;48.718;9.272;2023-03-26T17:15:10;0.25;;;0.20;;
44248;SDS011;29923;48.718;9.272;2023-03-26T17:20:36;0.20;;;0.20;;
44248;SDS011;29923;48.718;9.272;2023-03-26T17:23:27;0.77;;;0.40;;
44248;SDS011;29923;48.718;9.272;2023-03-26T17:26:04;4.32;;;0.50;;
44248;SDS011;29923;48.718;9.272;2023-03-26T17:42:32;0.38;;;0.30;;
44248;SDS011;29923;48.718;9.272;2023-03-26T17:47:51;1.02;;;0.30;;
44248;SDS011;29923;48.718;9.272;2023-03-26T17:52:52;0.85;;;0.45;;
44248;SDS011;29923;48.718;9.272;2023-03-26T17:55:21;1.58;;;0.38;;
44248;SDS011;29923;48.718;9.272;2023-03-26T17:57:51;0.88;;;0.30;;
44248;SDS011;29923;48.718;9.272;2023-03-26T18:00:25;1.25;;;0.40;;
44248;SDS011;29923;48.718;9.272;2023-03-26T18:02:55;0.50;;;0.50;;
44248;SDS011;29923;48.718;9.272;2023-03-26T18:05:23;0.85;;;0.60;;
44248;SDS011;29923;48.718;9.272;2023-03-26T18:10:47;1.45;;;0.43;;
44248;SDS011;29923;48.718;9.272;2023-03-26T18:18:49;1.83;;;0.40;;
44248;SDS011;29923;48.718;9.272;2023-03-26T18:21:26;1.50;;;0.55;;
44248;SDS011;29923;48.718;9.272;2023-03-26T18:23:55;0.40;;;0.40;;
44248;SDS011;29923;48.718;9.272;2023-03-26T18:26:22;1.77;;;0.63;;
44248;SDS011;29923;48.718;9.272;2023-03-26T18:31:51;1.15;;;0.40;;
44248;SDS011;29923;48.718;9.272;2023-03-26T18:34:18;1.08;;;0.40;;
44248;SDS011;29923;48.718;9.272;2023-03-26T18:36:50;1.02;;;0.45;;
44248;SDS011;29923;48.718;9.272;2023-03-26T18:39:28;1.83;;;0.50;;
44248;SDS011;29923;48.718;9.272;2023-03-26T18:41:53;0.80;;;0.60;;
44248;SDS011;29923;48.718;9.272;2023-03-26T18:44:19;1.38;;;0.55;;
44248;SDS011;29923;48.718;9.272;2023-03-26T18:46:45;1.00;;;0.50;;
44248;SDS011;29923;48.718;9.272;2023-03-26T18:49:14;1.85;;;0.55;;
44248;SDS011;29923;48.718;9.272;2023-03-26T18:51:40;0.98;;;0.60;;
44248;SDS011;29923;48.718;9.272;2023-03-26T18:54:07;3.28;;;0.55;;
44248;SDS011;29923;48.718;9.272;2023-03-26T18:56:39;1.17;;;0.75;;
44248;SDS011;29923;48.718;9.272;2023-03-26T18:59:24;3.50;;;0.63;;
44248;SDS011;29923;48.718;9.272;2023-03-26T19:01:56;0.93;;;0.60;;
44248;SDS011;29923;48.718;9.272;2023-03-26T19:04:23;2.42;;;1.13;;
44248;SDS011;29923;48.718;9.272;2023-03-26T19:06:50;1.92;;;0.70;;
44248;SDS011;29923;48.718;9.272;2023-03-26T19:09:19;1.27;;;0.50;;
44248;SDS011;29923;48.718;9.272;2023-03-26T19:11:47;0.50;;;0.47;;
44248;SDS011;29923;48.718;9.272;2023-03-26T19:14:14;3.80;;;0.63;;
44248;SDS011;29923;48.718;9.272;2023-03-26T19:16:41;2.55;;;0.80;;
44248;SDS011;29923;48.718;9.272;2023-03-26T19:19:11;3.38;;;0.75;;
44248;SDS011;29923;48.718;9.272;2023-03-26T19:21:42;2.30;;;0.65;;
44248;SDS011;29923;48.718;9.272;2023-03-26T19:24:09;3.03;;;0.77;;
44248;SDS011;29923;48.718;9.272;2023-03-26T19:26:36;2.03;;;0.90;;
44248;SDS011;29923;48.718;9.272;2023-03-26T19:29:01;2.67;;;0.80;;
44248;SDS011;29923;48.718;9.272;2023-03-26T19:31:35;3.92;;;0.80;;
44248;SDS011;29923;48.718;9.272;2023-03-26T19:34:12;2.22;;;0.68;;
44248;SDS011;29923;48.718;9.272;2023-03-26T19:36:56;2.38;;;0.70;;
44248;SDS011;29923;48.718;9.272;2023-03-26T19:39:40;1.65;;;0.60;;
44248;SDS011;29923;48.718;9.272;2023-03-26T19:42:14;1.67;;;0.60;;
44248;SDS011;29923;48.718;9.272;2023-03-26T19:44:42;2.33;;;0.77;;
44248;SDS011;29923;48.718;9.272;2023-03-26T19:47:14;1.30;;;0.50;;
44248;SDS011;29923;48.718;9.272;2023-03-26T19:52:13;1.15;;;0.73;;
44248;SDS011;29923;48.718;9.272;2023-03-26T19:55:00;1.08;;;0.60;;
44248;SDS011;29923;48.718;9.272;2023-03-26T19:57:34;4.75;;;1.52;;
44248;SDS011;29923;48.718;9.272;2023-03-26T20:00:00;2.58;;;0.65;;
44248;SDS011;29923;48.718;9.272;2023-03-26T20:02:26;2.40;;;0.90;;
44248;SDS011;29923;48.718;9.272;2023-03-26T20:04:51;7.72;;;4.30;;
44248;SDS011;29923;48.718;9.272;2023-03-26T20:07:18;1.95;;;1.20;;
44248;SDS011;29923;48.718;9.272;2023-03-26T20:09:46;1.50;;;0.63;;
44248;SDS011;29923;48.718;9.272;2023-03-26T20:12:12;4.88;;;0.98;;
44248;SDS011;29923;48.718;9.272;2023-03-26T20:14:37;1.15;;;0.85;;
44248;SDS011;29923;48.718;9.272;2023-03-26T20:17:05;0.68;;;0.55;;
44248;SDS011;29923;48.718;9.272;2023-03-26T20:19:34;4.28;;;0.77;;
44248;SDS011;29923;48.718;9.272;2023-03-26T20:22:00;1.92;;;0.70;;
44248;SDS011;29923;48.718;9.272;2023-03-26T20:24:26;4.03;;;0.63;;
44248;SDS011;29923;48.718;9.272;2023-03-26T20:26:51;0.98;;;0.70;;
44248;SDS011;29923;48.718;9.272;2023-03-26T20:29:17;0.60;;;0.55;;
44248;SDS011;29923;48.718;9.272;2023-03-26T20:31:43;2.05;;;0.60;;
44248;SDS011;29923;48.718;9.272;2023-03-26T20:34:14;0.70;;;0.43;;
44248;SDS011;29923;48.718;9.272;2023-03-26T20:36:41;1.20;;;0.50;;
44248;SDS011;29923;48.718;9.272;2023-03-26T20:39:07;0.90;;;0.40;;
44248;SDS011;29923;48.718;9.272;2023-03-26T20:41:33;2.53;;;0.40;;
44248;SDS011;29923;48.718;9.272;2023-03-26T20:43:59;1.25;;;1.10;;
44248;SDS011;29923;48.718;9.272;2023-03-26T20:46:28;0.65;;;0.60;;
44248;SDS011;29923;48.718;9.272;2023-03-26T20:48:53;0.98;;;0.30;;
44248;SDS011;29923;48.718;9.272;2023-03-26T20:51:20;0.55;;;0.40;;
44248;SDS011;29923;48.718;9.272;2023-03-26T20:53:45;0.82;;;0.35;;
44248;SDS011;29923;48.718;9.272;2023-03-26T20:56:18;1.15;;;0.40;;
44248;SDS011;29923;48.718;9.272;2023-03-26T20:58:44;1.05;;;0.55;;
44248;SDS011;29923;48.718;9.272;2023-03-26T21:01:11;0.60;;;0.50;;
44248;SDS011;29923;48.718;9.272;2023-03-26T21:03:40;0.70;;;0.70;;
44248;SDS011;29923;48.718;9.272;2023-03-26T21:06:06;0.45;;;0.40;;